sensor_id;sensor_type;location;lat;lon;timestamp;pressure;altitude;pressure_sealevel;temperature;humidity
32197;BME280;18697;42.770;23.400;2023-03-16T00:00:22;94753.38;;;4.79;82.24
32197;BME280;18697;42.770;23.400;2023-03-16T00:02:47;94741.72;;;4.75;82.87
32197;BME280;18697;42.770;23.400;2023-03-16T00:05:13;94748.56;;;4.71;83.21
32197;BME280;18697;42.770;23.400;2023-03-16T00:07:39;94756.06;;;4.70;83.03
32197;BME280;18697;42.770;23.400;2023-03-16T00:10:06;94748.13;;;4.72;83.33
32197;BME280;18697;42.770;23.400;2023-03-16T00:12:31;94763.34;;;4.64;82.97
32197;BME280;18697;42.770;23.400;2023-03-16T00:14:59;94759.63;;;4.58;83.14
32197;BME280;18697;42.770;23.400;2023-03-16T00:17:25;94763.91;;;4.59;82.75
32197;BME280;18697;42.770;23.400;2023-03-16T00:19:53;94763.84;;;4.50;83.16
32197;BME280;18697;42.770;23.400;2023-03-16T00:22:27;94771.44;;;4.46;83.49
32197;BME280;18697;42.770;23.400;2023-03-16T00:24:53;94775.44;;;4.45;83.43
32197;BME280;18697;42.770;23.400;2023-03-16T00:27:18;94773.69;;;4.38;83.00
32197;BME280;18697;42.770;23.400;2023-03-16T00:29:47;94771.38;;;4.37;83.08
32197;BME280;18697;42.770;23.400;2023-03-16T00:32:18;94778.41;;;4.38;82.99
32197;BME280;18697;42.770;23.400;2023-03-16T00:34:44;94765.13;;;4.36;83.34
32197;BME280;18697;42.770;23.400;2023-03-16T00:37:12;94778.28;;;4.41;83.03
32197;BME280;18697;42.770;23.400;2023-03-16T00:39:43;94791.94;;;4.45;83.28
32197;BME280;18697;42.770;23.400;2023-03-16T00:42:10;94783.03;;;4.41;83.08
32197;BME280;18697;42.770;23.400;2023-03-16T00:44:36;94785.84;;;4.50;82.19
32197;BME280;18697;42.770;23.400;2023-03-16T00:47:03;94796.50;;;4.48;82.65
32197;BME280;18697;42.770;23.400;2023-03-16T00:49:28;94801.69;;;4.46;82.40
32197;BME280;18697;42.770;23.400;2023-03-16T00:51:54;94789.63;;;4.43;82.80
32197;BME280;18697;42.770;23.400;2023-03-16T00:54:19;94788.69;;;4.46;82.29
32197;BME280;18697;42.770;23.400;2023-03-16T00:56:46;94782.44;;;4.46;82.52
32197;BME280;18697;42.770;23.400;2023-03-16T00:59:11;94794.34;;;4.43;82.06
32197;BME280;18697;42.770;23.400;2023-03-16T01:01:37;94801.06;;;4.42;82.01
32197;BME280;18697;42.770;23.400;2023-03-16T01:04:03;94791.72;;;4.39;82.13
32197;BME280;18697;42.770;23.400;2023-03-16T01:06:28;94790.50;;;4.40;81.94
32197;BME280;18697;42.770;23.400;2023-03-16T01:08:54;94799.19;;;4.39;81.60
32197;BME280;18697;42.770;23.400;2023-03-16T01:11:21;94804.25;;;4.40;81.26
32197;BME280;18697;42.770;23.400;2023-03-16T01:13:48;94790.41;;;4.31;81.49
32197;BME280;18697;42.770;23.400;2023-03-16T01:16:16;94796.16;;;4.24;81.48
32197;BME280;18697;42.770;23.400;2023-03-16T01:18:43;94792.75;;;4.20;81.74
32197;BME280;18697;42.770;23.400;2023-03-16T01:21:09;94801.22;;;4.13;81.78
32197;BME280;18697;42.770;23.400;2023-03-16T01:23:38;94798.59;;;4.09;82.41
32197;BME280;18697;42.770;23.400;2023-03-16T01:26:04;94785.97;;;3.86;82.21
32197;BME280;18697;42.770;23.400;2023-03-16T01:28:31;94804.75;;;3.88;82.82
32197;BME280;18697;42.770;23.400;2023-03-16T01:31:06;94806.28;;;3.76;83.16
32197;BME280;18697;42.770;23.400;2023-03-16T01:33:32;94811.25;;;3.69;83.54
32197;BME280;18697;42.770;23.400;2023-03-16T01:35:59;94804.88;;;3.72;84.18
32197;BME280;18697;42.770;23.400;2023-03-16T01:38:25;94804.34;;;3.64;84.02
32197;BME280;18697;42.770;23.400;2023-03-16T01:40:52;94798.09;;;3.63;84.03
32197;BME280;18697;42.770;23.400;2023-03-16T01:43:20;94809.28;;;3.56;84.29
32197;BME280;18697;42.770;23.400;2023-03-16T01:48:48;94809.81;;;3.51;84.96
32197;BME280;18697;42.770;23.400;2023-03-16T01:54:08;94825.06;;;3.40;85.22
32197;BME280;18697;42.770;23.400;2023-03-16T01:56:41;94823.41;;;3.29;85.92
32197;BME280;18697;42.770;23.400;2023-03-16T01:59:11;94833.59;;;3.29;86.21
32197;BME280;18697;42.770;23.400;2023-03-16T02:01:38;94826.69;;;3.24;86.10
32197;BME280;18697;42.770;23.400;2023-03-16T02:04:16;94837.31;;;3.22;86.96
32197;BME280;18697;42.770;23.400;2023-03-16T02:06:47;94837.31;;;3.22;86.80
32197;BME280;18697;42.770;23.400;2023-03-16T02:09:15;94841.28;;;3.21;86.85
32197;BME280;18697;42.770;23.400;2023-03-16T02:11:41;94844.22;;;3.14;87.18
32197;BME280;18697;42.770;23.400;2023-03-16T02:14:10;94853.66;;;3.13;87.14
32197;BME280;18697;42.770;23.400;2023-03-16T02:16:37;94855.03;;;3.05;88.00
32197;BME280;18697;42.770;23.400;2023-03-16T02:19:08;94860.09;;;3.07;88.15
32197;BME280;18697;42.770;23.400;2023-03-16T02:21:54;94863.94;;;3.09;88.17
32197;BME280;18697;42.770;23.400;2023-03-16T02:24:26;94864.81;;;3.06;88.03
32197;BME280;18697;42.770;23.400;2023-03-16T02:26:55;94869.59;;;2.89;88.47
32197;BME280;18697;42.770;23.400;2023-03-16T02:32:06;94862.91;;;2.90;89.50
32197;BME280;18697;42.770;23.400;2023-03-16T02:34:32;94870.13;;;2.84;89.34
32197;BME280;18697;42.770;23.400;2023-03-16T02:36:58;94881.69;;;2.92;89.39
32197;BME280;18697;42.770;23.400;2023-03-16T02:39:24;94880.22;;;2.87;89.24
32197;BME280;18697;42.770;23.400;2023-03-16T02:41:50;94871.75;;;2.82;89.32
32197;BME280;18697;42.770;23.400;2023-03-16T02:44:22;94878.00;;;2.82;89.34
32197;BME280;18697;42.770;23.400;2023-03-16T02:46:51;94877.25;;;2.82;89.31
32197;BME280;18697;42.770;23.400;2023-03-16T02:49:22;94884.38;;;2.79;89.04
32197;BME280;18697;42.770;23.400;2023-03-16T02:51:49;94886.75;;;2.77;89.39
32197;BME280;18697;42.770;23.400;2023-03-16T02:54:15;94884.88;;;2.74;89.43
32197;BME280;18697;42.770;23.400;2023-03-16T02:56:41;94884.47;;;2.76;89.43
32197;BME280;18697;42.770;23.400;2023-03-16T02:59:06;94893.69;;;2.82;89.66
32197;BME280;18697;42.770;23.400;2023-03-16T03:01:32;94887.78;;;2.83;89.22
32197;BME280;18697;42.770;23.400;2023-03-16T03:03:59;94889.00;;;2.82;89.59
32197;BME280;18697;42.770;23.400;2023-03-16T03:06:25;94885.56;;;2.78;89.32
32197;BME280;18697;42.770;23.400;2023-03-16T03:08:50;94901.69;;;2.76;89.74
32197;BME280;18697;42.770;23.400;2023-03-16T03:11:16;94902.72;;;2.66;90.22
32197;BME280;18697;42.770;23.400;2023-03-16T03:13:44;94900.84;;;2.63;90.12
32197;BME280;18697;42.770;23.400;2023-03-16T03:16:10;94902.13;;;2.58;90.55
32197;BME280;18697;42.770;23.400;2023-03-16T03:18:35;94904.78;;;2.62;90.81
32197;BME280;18697;42.770;23.400;2023-03-16T03:21:01;94913.50;;;2.57;91.09
32197;BME280;18697;42.770;23.400;2023-03-16T03:23:26;94911.13;;;2.59;91.15
32197;BME280;18697;42.770;23.400;2023-03-16T03:25:56;94915.31;;;2.63;90.99
32197;BME280;18697;42.770;23.400;2023-03-16T03:28:22;94913.78;;;2.62;90.77
32197;BME280;18697;42.770;23.400;2023-03-16T03:30:47;94919.84;;;2.70;90.44
32197;BME280;18697;42.770;23.400;2023-03-16T03:33:13;94924.75;;;2.62;90.44
32197;BME280;18697;42.770;23.400;2023-03-16T03:35:38;94917.53;;;2.69;90.24
32197;BME280;18697;42.770;23.400;2023-03-16T03:38:04;94924.13;;;2.71;90.24
32197;BME280;18697;42.770;23.400;2023-03-16T03:40:29;94924.91;;;2.72;89.97
32197;BME280;18697;42.770;23.400;2023-03-16T03:42:54;94926.69;;;2.78;89.84
32197;BME280;18697;42.770;23.400;2023-03-16T03:45:20;94929.97;;;2.73;89.58
32197;BME280;18697;42.770;23.400;2023-03-16T03:47:45;94928.31;;;2.76;89.53
32197;BME280;18697;42.770;23.400;2023-03-16T03:50:11;94936.22;;;2.57;89.89
32197;BME280;18697;42.770;23.400;2023-03-16T03:52:38;94939.56;;;2.65;90.16
32197;BME280;18697;42.770;23.400;2023-03-16T03:55:03;94948.97;;;2.64;90.00
32197;BME280;18697;42.770;23.400;2023-03-16T03:57:30;94954.38;;;2.68;90.17
32197;BME280;18697;42.770;23.400;2023-03-16T03:59:55;94951.28;;;2.66;89.87
32197;BME280;18697;42.770;23.400;2023-03-16T04:02:21;94955.25;;;2.64;90.15
32197;BME280;18697;42.770;23.400;2023-03-16T04:04:46;94958.25;;;2.70;90.27
32197;BME280;18697;42.770;23.400;2023-03-16T04:07:11;94951.13;;;2.73;89.89
32197;BME280;18697;42.770;23.400;2023-03-16T04:09:37;94957.03;;;2.71;89.95
32197;BME280;18697;42.770;23.400;2023-03-16T04:12:04;94963.88;;;2.79;90.09
32197;BME280;18697;42.770;23.400;2023-03-16T04:14:29;94956.59;;;2.73;89.82
32197;BME280;18697;42.770;23.400;2023-03-16T04:16:55;94957.28;;;2.77;89.71
32197;BME280;18697;42.770;23.400;2023-03-16T04:19:21;94970.84;;;2.84;89.65
32197;BME280;18697;42.770;23.400;2023-03-16T04:21:48;94962.00;;;2.76;89.21
32197;BME280;18697;42.770;23.400;2023-03-16T04:24:14;94964.41;;;2.74;89.12
32197;BME280;18697;42.770;23.400;2023-03-16T04:26:40;94981.19;;;2.76;88.96
32197;BME280;18697;42.770;23.400;2023-03-16T04:29:06;94983.84;;;2.80;88.66
32197;BME280;18697;42.770;23.400;2023-03-16T04:31:31;94985.50;;;2.77;88.82
32197;BME280;18697;42.770;23.400;2023-03-16T04:33:56;94989.44;;;2.76;88.99
32197;BME280;18697;42.770;23.400;2023-03-16T04:36:22;94985.50;;;2.77;88.67
32197;BME280;18697;42.770;23.400;2023-03-16T04:38:50;94995.25;;;2.78;88.64
32197;BME280;18697;42.770;23.400;2023-03-16T04:41:16;95000.75;;;2.78;88.50
32197;BME280;18697;42.770;23.400;2023-03-16T04:43:42;95001.09;;;2.80;88.59
32197;BME280;18697;42.770;23.400;2023-03-16T04:46:08;94994.06;;;2.79;88.38
32197;BME280;18697;42.770;23.400;2023-03-16T04:48:34;95007.25;;;2.84;88.22
32197;BME280;18697;42.770;23.400;2023-03-16T04:51:00;95006.16;;;2.82;88.01
32197;BME280;18697;42.770;23.400;2023-03-16T04:53:28;95008.97;;;2.78;87.91
32197;BME280;18697;42.770;23.400;2023-03-16T04:55:53;95020.72;;;2.79;87.99
32197;BME280;18697;42.770;23.400;2023-03-16T04:58:19;95010.16;;;2.77;87.95
32197;BME280;18697;42.770;23.400;2023-03-16T05:00:44;95023.03;;;2.80;87.60
32197;BME280;18697;42.770;23.400;2023-03-16T05:03:10;95024.56;;;2.81;87.14
32197;BME280;18697;42.770;23.400;2023-03-16T05:05:39;95029.13;;;2.88;87.05
32197;BME280;18697;42.770;23.400;2023-03-16T05:08:06;95029.03;;;2.91;87.00
32197;BME280;18697;42.770;23.400;2023-03-16T05:10:33;95027.22;;;2.85;86.90
32197;BME280;18697;42.770;23.400;2023-03-16T05:12:59;95032.63;;;2.88;86.93
32197;BME280;18697;42.770;23.400;2023-03-16T05:15:25;95035.38;;;2.88;86.57
32197;BME280;18697;42.770;23.400;2023-03-16T05:17:50;95033.81;;;2.87;86.29
32197;BME280;18697;42.770;23.400;2023-03-16T05:20:16;95029.19;;;2.84;86.71
32197;BME280;18697;42.770;23.400;2023-03-16T05:22:44;95033.22;;;2.80;86.78
32197;BME280;18697;42.770;23.400;2023-03-16T05:25:10;95044.53;;;2.82;86.83
32197;BME280;18697;42.770;23.400;2023-03-16T05:27:40;95043.84;;;2.78;86.87
32197;BME280;18697;42.770;23.400;2023-03-16T05:30:08;95042.28;;;2.60;87.13
32197;BME280;18697;42.770;23.400;2023-03-16T05:32:33;95051.63;;;2.63;87.58
32197;BME280;18697;42.770;23.400;2023-03-16T05:34:59;95055.06;;;2.67;88.39
32197;BME280;18697;42.770;23.400;2023-03-16T05:37:24;95054.38;;;2.63;88.16
32197;BME280;18697;42.770;23.400;2023-03-16T05:39:50;95063.44;;;2.60;88.47
32197;BME280;18697;42.770;23.400;2023-03-16T05:42:15;95067.22;;;2.66;88.56
32197;BME280;18697;42.770;23.400;2023-03-16T05:44:40;95068.34;;;2.69;88.58
32197;BME280;18697;42.770;23.400;2023-03-16T05:47:06;95069.53;;;2.68;88.36
32197;BME280;18697;42.770;23.400;2023-03-16T05:49:31;95068.84;;;2.63;88.30
32197;BME280;18697;42.770;23.400;2023-03-16T05:51:57;95073.41;;;2.70;88.76
32197;BME280;18697;42.770;23.400;2023-03-16T05:54:22;95082.81;;;2.69;88.43
32197;BME280;18697;42.770;23.400;2023-03-16T05:56:48;95081.63;;;2.70;88.38
32197;BME280;18697;42.770;23.400;2023-03-16T05:59:13;95077.78;;;2.68;88.60
32197;BME280;18697;42.770;23.400;2023-03-16T06:01:40;95090.72;;;2.67;88.62
32197;BME280;18697;42.770;23.400;2023-03-16T06:04:05;95095.00;;;2.68;88.60
32197;BME280;18697;42.770;23.400;2023-03-16T06:06:31;95096.88;;;2.71;88.66
32197;BME280;18697;42.770;23.400;2023-03-16T06:08:56;95090.91;;;2.76;88.40
32197;BME280;18697;42.770;23.400;2023-03-16T06:11:22;95087.03;;;2.74;88.37
32197;BME280;18697;42.770;23.400;2023-03-16T06:13:47;95097.41;;;2.82;88.23
32197;BME280;18697;42.770;23.400;2023-03-16T06:16:13;95093.97;;;2.78;87.90
32197;BME280;18697;42.770;23.400;2023-03-16T06:18:39;95106.06;;;2.81;87.69
32197;BME280;18697;42.770;23.400;2023-03-16T06:21:05;95109.78;;;2.90;88.02
32197;BME280;18697;42.770;23.400;2023-03-16T06:23:31;95108.84;;;2.97;87.83
32197;BME280;18697;42.770;23.400;2023-03-16T06:25:56;95108.06;;;2.96;87.04
32197;BME280;18697;42.770;23.400;2023-03-16T06:28:23;95116.09;;;3.04;87.15
32197;BME280;18697;42.770;23.400;2023-03-16T06:30:52;95118.84;;;3.04;86.99
32197;BME280;18697;42.770;23.400;2023-03-16T06:33:18;95125.31;;;2.97;86.55
32197;BME280;18697;42.770;23.400;2023-03-16T06:35:43;95119.81;;;2.97;86.63
32197;BME280;18697;42.770;23.400;2023-03-16T06:38:08;95126.75;;;3.02;86.57
32197;BME280;18697;42.770;23.400;2023-03-16T06:40:34;95130.25;;;3.02;86.09
32197;BME280;18697;42.770;23.400;2023-03-16T06:42:59;95139.88;;;2.94;85.92
32197;BME280;18697;42.770;23.400;2023-03-16T06:45:26;95141.66;;;3.01;86.38
32197;BME280;18697;42.770;23.400;2023-03-16T06:47:51;95148.00;;;2.97;86.66
32197;BME280;18697;42.770;23.400;2023-03-16T06:50:17;95143.81;;;2.93;87.18
32197;BME280;18697;42.770;23.400;2023-03-16T06:52:42;95152.97;;;3.03;87.35
32197;BME280;18697;42.770;23.400;2023-03-16T06:55:08;95145.00;;;2.92;86.71
32197;BME280;18697;42.770;23.400;2023-03-16T06:57:34;95143.19;;;2.85;87.12
32197;BME280;18697;42.770;23.400;2023-03-16T06:59:59;95158.59;;;2.79;87.26
32197;BME280;18697;42.770;23.400;2023-03-16T07:02:27;95157.06;;;2.78;88.04
32197;BME280;18697;42.770;23.400;2023-03-16T07:04:52;95167.38;;;2.90;88.48
32197;BME280;18697;42.770;23.400;2023-03-16T07:07:18;95173.22;;;2.92;88.55
32197;BME280;18697;42.770;23.400;2023-03-16T07:09:43;95175.69;;;2.87;88.61
32197;BME280;18697;42.770;23.400;2023-03-16T07:12:09;95171.81;;;2.84;88.93
32197;BME280;18697;42.770;23.400;2023-03-16T07:14:34;95185.03;;;2.89;88.93
32197;BME280;18697;42.770;23.400;2023-03-16T07:17:00;95184.25;;;2.89;88.66
32197;BME280;18697;42.770;23.400;2023-03-16T07:19:26;95189.47;;;2.83;88.97
32197;BME280;18697;42.770;23.400;2023-03-16T07:21:52;95194.81;;;2.90;88.96
32197;BME280;18697;42.770;23.400;2023-03-16T07:24:18;95191.63;;;2.92;89.72
32197;BME280;18697;42.770;23.400;2023-03-16T07:26:43;95195.16;;;2.92;89.59
32197;BME280;18697;42.770;23.400;2023-03-16T07:29:11;95201.16;;;3.04;89.76
32197;BME280;18697;42.770;23.400;2023-03-16T07:31:36;95194.75;;;3.10;90.13
32197;BME280;18697;42.770;23.400;2023-03-16T07:34:02;95196.38;;;3.08;89.35
32197;BME280;18697;42.770;23.400;2023-03-16T07:36:28;95210.34;;;3.13;88.98
32197;BME280;18697;42.770;23.400;2023-03-16T07:38:54;95202.56;;;3.12;89.21
32197;BME280;18697;42.770;23.400;2023-03-16T07:41:19;95211.81;;;3.18;89.03
32197;BME280;18697;42.770;23.400;2023-03-16T07:43:47;95216.03;;;3.22;88.61
32197;BME280;18697;42.770;23.400;2023-03-16T07:46:13;95221.69;;;3.15;87.82
32197;BME280;18697;42.770;23.400;2023-03-16T07:48:43;95215.34;;;3.18;87.91
32197;BME280;18697;42.770;23.400;2023-03-16T07:51:09;95219.56;;;3.23;88.69
32197;BME280;18697;42.770;23.400;2023-03-16T07:53:36;95224.28;;;3.22;88.82
32197;BME280;18697;42.770;23.400;2023-03-16T07:56:02;95219.06;;;3.28;88.85
32197;BME280;18697;42.770;23.400;2023-03-16T07:58:27;95217.16;;;3.25;88.34
32197;BME280;18697;42.770;23.400;2023-03-16T08:00:57;95222.22;;;3.26;88.22
32197;BME280;18697;42.770;23.400;2023-03-16T08:03:27;95223.19;;;3.36;88.38
32197;BME280;18697;42.770;23.400;2023-03-16T08:05:52;95219.06;;;3.44;88.36
32197;BME280;18697;42.770;23.400;2023-03-16T08:08:19;95208.00;;;3.48;88.26
32197;BME280;18697;42.770;23.400;2023-03-16T08:10:50;95214.47;;;3.57;87.20
32197;BME280;18697;42.770;23.400;2023-03-16T08:13:18;95206.13;;;3.61;86.34
32197;BME280;18697;42.770;23.400;2023-03-16T08:15:48;95212.47;;;3.74;87.02
32197;BME280;18697;42.770;23.400;2023-03-16T08:18:20;95213.56;;;3.77;86.26
32197;BME280;18697;42.770;23.400;2023-03-16T08:20:48;95220.44;;;3.85;85.39
32197;BME280;18697;42.770;23.400;2023-03-16T08:23:13;95222.75;;;3.86;85.23
32197;BME280;18697;42.770;23.400;2023-03-16T08:25:39;95228.94;;;3.90;84.51
32197;BME280;18697;42.770;23.400;2023-03-16T08:28:05;95235.13;;;3.94;83.83
32197;BME280;18697;42.770;23.400;2023-03-16T08:30:33;95237.53;;;3.92;83.52
32197;BME280;18697;42.770;23.400;2023-03-16T08:33:00;95226.63;;;3.89;83.63
32197;BME280;18697;42.770;23.400;2023-03-16T08:35:31;95239.66;;;4.01;83.19
32197;BME280;18697;42.770;23.400;2023-03-16T08:37:57;95238.91;;;4.01;83.31
32197;BME280;18697;42.770;23.400;2023-03-16T08:40:23;95234.53;;;4.03;82.19
32197;BME280;18697;42.770;23.400;2023-03-16T08:42:49;95245.16;;;4.01;82.02
32197;BME280;18697;42.770;23.400;2023-03-16T08:45:15;95231.16;;;3.95;82.70
32197;BME280;18697;42.770;23.400;2023-03-16T08:47:42;95245.16;;;4.01;82.72
32197;BME280;18697;42.770;23.400;2023-03-16T08:50:09;95244.66;;;4.06;83.70
32197;BME280;18697;42.770;23.400;2023-03-16T08:52:36;95253.59;;;4.10;84.45
32197;BME280;18697;42.770;23.400;2023-03-16T08:55:03;95258.81;;;4.21;84.09
32197;BME280;18697;42.770;23.400;2023-03-16T08:57:32;95264.91;;;4.28;84.12
32197;BME280;18697;42.770;23.400;2023-03-16T08:59:58;95262.75;;;4.20;82.33
32197;BME280;18697;42.770;23.400;2023-03-16T09:02:24;95261.13;;;4.22;83.04
32197;BME280;18697;42.770;23.400;2023-03-16T09:04:49;95257.69;;;4.18;82.12
32197;BME280;18697;42.770;23.400;2023-03-16T09:07:15;95264.66;;;4.23;82.01
32197;BME280;18697;42.770;23.400;2023-03-16T09:09:41;95257.34;;;4.16;79.98
32197;BME280;18697;42.770;23.400;2023-03-16T09:12:06;95266.97;;;4.24;79.91
32197;BME280;18697;42.770;23.400;2023-03-16T09:14:33;95265.75;;;4.25;80.20
32197;BME280;18697;42.770;23.400;2023-03-16T09:16:58;95275.47;;;4.14;78.68
32197;BME280;18697;42.770;23.400;2023-03-16T09:19:23;95276.41;;;4.23;78.45
32197;BME280;18697;42.770;23.400;2023-03-16T09:21:49;95276.91;;;4.35;79.41
32197;BME280;18697;42.770;23.400;2023-03-16T09:24:15;95265.25;;;4.31;77.14
32197;BME280;18697;42.770;23.400;2023-03-16T09:26:41;95275.28;;;4.37;77.49
32197;BME280;18697;42.770;23.400;2023-03-16T09:29:08;95272.19;;;4.35;77.39
32197;BME280;18697;42.770;23.400;2023-03-16T09:31:33;95274.94;;;4.35;77.77
32197;BME280;18697;42.770;23.400;2023-03-16T09:34:00;95268.00;;;4.31;77.55
32197;BME280;18697;42.770;23.400;2023-03-16T09:36:25;95277.25;;;4.37;79.58
32197;BME280;18697;42.770;23.400;2023-03-16T09:38:51;95280.59;;;4.44;80.12
32197;BME280;18697;42.770;23.400;2023-03-16T09:44:02;95282.91;;;4.46;77.88
32197;BME280;18697;42.770;23.400;2023-03-16T09:46:33;95291.47;;;4.48;78.34
32197;BME280;18697;42.770;23.400;2023-03-16T09:49:00;95294.66;;;4.46;77.29
32197;BME280;18697;42.770;23.400;2023-03-16T09:51:41;95301.72;;;4.47;77.11
32197;BME280;18697;42.770;23.400;2023-03-16T09:56:42;95286.75;;;4.48;76.90
32197;BME280;18697;42.770;23.400;2023-03-16T09:59:11;95296.63;;;4.46;76.17
32197;BME280;18697;42.770;23.400;2023-03-16T10:07:15;95287.88;;;4.51;76.11
32197;BME280;18697;42.770;23.400;2023-03-16T10:12:38;95283.22;;;4.48;75.99
32197;BME280;18697;42.770;23.400;2023-03-16T10:15:09;95296.28;;;4.60;76.49
32197;BME280;18697;42.770;23.400;2023-03-16T10:18:05;95292.38;;;4.74;77.53
32197;BME280;18697;42.770;23.400;2023-03-16T10:20:33;95300.00;;;4.82;77.10
32197;BME280;18697;42.770;23.400;2023-03-16T10:22:59;95296.47;;;4.82;77.04
32197;BME280;18697;42.770;23.400;2023-03-16T10:27:55;95287.22;;;5.05;76.60
32197;BME280;18697;42.770;23.400;2023-03-16T10:30:27;95300.53;;;5.06;75.35
32197;BME280;18697;42.770;23.400;2023-03-16T10:32:55;95294.06;;;5.13;75.23
32197;BME280;18697;42.770;23.400;2023-03-16T10:37:52;95287.59;;;5.19;75.74
32197;BME280;18697;42.770;23.400;2023-03-16T10:40:18;95289.00;;;5.24;75.49
32197;BME280;18697;42.770;23.400;2023-03-16T10:42:45;95287.25;;;5.30;75.08
32197;BME280;18697;42.770;23.400;2023-03-16T10:45:22;95287.59;;;5.32;74.65
32197;BME280;18697;42.770;23.400;2023-03-16T10:47:48;95289.16;;;5.46;74.72
32197;BME280;18697;42.770;23.400;2023-03-16T10:50:14;95287.50;;;5.48;74.03
32197;BME280;18697;42.770;23.400;2023-03-16T10:52:46;95287.50;;;5.48;73.37
32197;BME280;18697;42.770;23.400;2023-03-16T10:55:26;95290.38;;;5.57;72.53
32197;BME280;18697;42.770;23.400;2023-03-16T10:57:55;95290.28;;;5.61;72.97
32197;BME280;18697;42.770;23.400;2023-03-16T11:00:28;95294.47;;;5.78;73.41
32197;BME280;18697;42.770;23.400;2023-03-16T11:02:57;95295.25;;;5.79;72.57
32197;BME280;18697;42.770;23.400;2023-03-16T11:05:30;95291.94;;;5.84;71.20
32197;BME280;18697;42.770;23.400;2023-03-16T11:08:05;95285.97;;;5.73;71.07
32197;BME280;18697;42.770;23.400;2023-03-16T11:10:36;95292.50;;;5.79;71.43
32197;BME280;18697;42.770;23.400;2023-03-16T11:13:09;95292.16;;;5.77;71.82
32197;BME280;18697;42.770;23.400;2023-03-16T11:15:38;95297.78;;;5.73;71.30
32197;BME280;18697;42.770;23.400;2023-03-16T11:18:05;95290.06;;;5.68;72.12
32197;BME280;18697;42.770;23.400;2023-03-16T11:20:34;95285.97;;;5.73;71.85
32197;BME280;18697;42.770;23.400;2023-03-16T11:23:00;95290.06;;;5.68;72.63
32197;BME280;18697;42.770;23.400;2023-03-16T11:25:35;95291.50;;;5.73;72.77
32197;BME280;18697;42.770;23.400;2023-03-16T11:31:26;95288.28;;;5.74;72.44
32197;BME280;18697;42.770;23.400;2023-03-16T11:33:57;95292.47;;;5.66;71.23
32197;BME280;18697;42.770;23.400;2023-03-16T11:39:25;95297.44;;;5.58;72.39
32197;BME280;18697;42.770;23.400;2023-03-16T11:42:12;95289.72;;;5.53;71.88
32197;BME280;18697;42.770;23.400;2023-03-16T11:45:26;95291.25;;;5.54;73.02
32197;BME280;18697;42.770;23.400;2023-03-16T11:53:05;95287.84;;;5.50;72.17
32197;BME280;18697;42.770;23.400;2023-03-16T11:55:55;95288.28;;;5.49;72.51
32197;BME280;18697;42.770;23.400;2023-03-16T11:58:30;95290.69;;;5.47;72.74
32197;BME280;18697;42.770;23.400;2023-03-16T12:01:02;95294.44;;;5.53;73.51
32197;BME280;18697;42.770;23.400;2023-03-16T12:14:13;95299.16;;;5.40;73.65
32197;BME280;18697;42.770;23.400;2023-03-16T12:16:58;95299.38;;;5.33;74.04
32197;BME280;18697;42.770;23.400;2023-03-16T12:19:51;95301.78;;;5.31;73.96
32197;BME280;18697;42.770;23.400;2023-03-16T12:22:20;95311.78;;;5.24;73.90
32197;BME280;18697;42.770;23.400;2023-03-16T12:24:47;95312.56;;;5.25;74.33
32197;BME280;18697;42.770;23.400;2023-03-16T12:27:27;95298.03;;;5.12;74.46
32197;BME280;18697;42.770;23.400;2023-03-16T12:44:12;95331.94;;;5.09;75.34
32197;BME280;18697;42.770;23.400;2023-03-16T12:47:12;95327.72;;;5.04;76.09
32197;BME280;18697;42.770;23.400;2023-03-16T12:49:42;95340.38;;;5.02;76.56
32197;BME280;18697;42.770;23.400;2023-03-16T12:52:10;95339.59;;;5.01;75.74
32197;BME280;18697;42.770;23.400;2023-03-16T12:54:47;95332.22;;;4.98;76.19
32197;BME280;18697;42.770;23.400;2023-03-16T12:57:15;95347.47;;;4.86;75.33
32197;BME280;18697;42.770;23.400;2023-03-16T12:59:45;95347.38;;;4.90;75.97
32197;BME280;18697;42.770;23.400;2023-03-16T13:02:20;95336.47;;;4.86;77.13
32197;BME280;18697;42.770;23.400;2023-03-16T13:04:58;95352.19;;;4.86;76.68
32197;BME280;18697;42.770;23.400;2023-03-16T13:07:27;95350.66;;;4.85;76.64
32197;BME280;18697;42.770;23.400;2023-03-16T13:10:18;95344.56;;;4.77;75.90
32197;BME280;18697;42.770;23.400;2023-03-16T13:12:45;95347.31;;;4.77;77.47
32197;BME280;18697;42.770;23.400;2023-03-16T13:17:45;95359.16;;;4.90;79.21
32197;BME280;18697;42.770;23.400;2023-03-16T13:22:48;95349.19;;;4.80;78.15
32197;BME280;18697;42.770;23.400;2023-03-16T13:27:50;95361.09;;;4.61;78.90
32197;BME280;18697;42.770;23.400;2023-03-16T13:30:23;95372.44;;;4.63;80.43
32197;BME280;18697;42.770;23.400;2023-03-16T13:33:08;95367.53;;;4.54;80.62
32197;BME280;18697;42.770;23.400;2023-03-16T13:35:39;95379.13;;;4.46;81.68
32197;BME280;18697;42.770;23.400;2023-03-16T13:38:11;95372.28;;;4.38;82.05
32197;BME280;18697;42.770;23.400;2023-03-16T13:40:53;95385.69;;;4.36;82.66
32197;BME280;18697;42.770;23.400;2023-03-16T13:43:25;95379.16;;;4.29;82.46
32197;BME280;18697;42.770;23.400;2023-03-16T13:45:56;95387.59;;;4.39;82.22
32197;BME280;18697;42.770;23.400;2023-03-16T13:48:21;95395.31;;;4.44;83.11
32197;BME280;18697;42.770;23.400;2023-03-16T13:50:55;95390.78;;;4.37;81.92
32197;BME280;18697;42.770;23.400;2023-03-16T13:53:29;95398.59;;;4.39;82.02
32197;BME280;18697;42.770;23.400;2023-03-16T13:55:57;95397.53;;;4.49;81.95
32197;BME280;18697;42.770;23.400;2023-03-16T13:58:27;95393.22;;;4.48;81.63
32197;BME280;18697;42.770;23.400;2023-03-16T14:00:59;95384.66;;;4.46;81.83
32197;BME280;18697;42.770;23.400;2023-03-16T14:03:37;95405.63;;;4.56;82.34
32197;BME280;18697;42.770;23.400;2023-03-16T14:06:04;95398.38;;;4.62;81.87
32197;BME280;18697;42.770;23.400;2023-03-16T14:08:30;95391.84;;;4.72;82.48
32197;BME280;18697;42.770;23.400;2023-03-16T14:10:56;95404.03;;;4.87;81.98
32197;BME280;18697;42.770;23.400;2023-03-16T14:13:30;95399.22;;;4.91;80.87
32197;BME280;18697;42.770;23.400;2023-03-16T14:16:10;95395.00;;;5.03;80.74